Roundup, MT (59072)

11:41 AM MDT on July 23, 2014 (GMT -0600)
Billings Logan International (KBIL) Elev 3570 ft | 45.81 °N, 108.54 °W | Change Station

Current weather conditions updated 48 minutes ago

Partly Cloudy
Partly Cloudy
73 °F
Feels Like 73 °F
N
4
Wind Variable Wind from SSE

Today is forecast to be Much Warmer than yesterday.

Today
High -- | Low -- °F
--% Chance of Precip.
Yesterday
High -- | Low -- °F
Precip. -- in
5:45 AM 8:55 PM
Waning Crescent, 9% visible
Pressure 30.05 in
Visibility 10.0 miles
Clouds Few 10000 ft
Dew Point 59 °F
Humidity 61%
Rainfall 0.00 in
Snow Depth Not available.
UV 8 out of 12
Pollen 6.10 out of 12
Air Quality Not available.
Flu Activity Not available.
METAR KBIL 231653Z 16003KT 10SM FEW100 23/15 A3013 RMK AO2 SLP175 ACC N-NE T02280150

More Conditions Fewer Conditions

Pressure 30.05 in
Visibility 10.0 miles
Clouds Few 10000 ft
Dew Point 59 °F
Humidity 61%
Rainfall 0.00 in
Snow Depth Not available.
UV 8 out of 12
Pollen 6.10 out of 12
Air Quality Not available.
Flu Activity Not available.
METAR KBIL 231653Z 16003KT 10SM FEW100 23/15 A3013 RMK AO2 SLP175 ACC N-NE T02280150

More Conditions Fewer Conditions

10-Day Weather Forecast

Almanac

Astronomy

Jul. 23, 2014 Rise Set
Actual Time 5:45 AM MDT 8:55 PM MDT
Civil Twilight 5:08 AM MDT 9:31 PM MDT
Nautical Twilight 4:21 AM MDT 10:18 PM MDT
Astronomical Twilight 3:23 AM MDT 11:16 PM MDT
Moon 3:07 AM MDT 6:25 PM MDT
Length of Visible Light 16h 23m
Length of Day
15h 10m
Tomorrow will be 2m 13s shorter.
Waning Crescent, 9% of the Moon is Illuminated
Today
Waning Crescent
Jul 26
New
Aug 3
First Quarter
Aug 10
Full
Aug 17
Last Quarter

Today's Extremes

State Highs State Lows

Community

WunderPhotos

Upload Photos

1,736,689 photos uploaded!

Nearby

Snow Depth

Station Depth Elevation
Crystal Lake 0 in 6050 ft
Cole Creek 0 in 7850 ft
Porcupine 1 in 6500 ft
Onion Park 0 in 7410 ft
White Mill 1 in 8700 ft

Earthquake Activity

City Distance Mag. Time & Date
No recent earthquake activity has been reported nearby.
Minimum magnitude displayed is 2.5.

Coastal Water Temperatures

Place Temperature
No Stations Reporting

Nearby Weather Stations

Station Location Temp. Heat Index Dew Point Humidity Wind Precip. Elev Updated Type
RAWS HORSE THIEF MT, Roundup, MT 77 °F 79 °F 63 °F 61% ENE  at  4 mph 0.00 in / hr 3479 ft 10:39 AM MDT MADIS
RAWS STEAMBOAT MT, Musselshell, MT 80 °F 81 °F 61 °F 53% ENE  at  4 mph 0.00 in / hr 3770 ft 10:41 AM MDT MADIS

Show More Stations Show Fewer Stations